createdAt,value
2022-11-01T00:01:50.733Z,99.90
2022-11-01T00:04:18.706Z,99.90
2022-11-01T00:06:48.126Z,99.90
2022-11-01T00:09:16.111Z,99.90
2022-11-01T00:11:43.946Z,99.90
2022-11-01T00:14:13.143Z,99.90
2022-11-01T00:16:42.765Z,99.90
2022-11-01T00:19:10.661Z,99.90
2022-11-01T00:21:38.554Z,99.90
2022-11-01T00:24:06.681Z,99.90
2022-11-01T00:26:34.629Z,99.90
2022-11-01T00:29:02.562Z,99.90
2022-11-01T00:31:31.971Z,99.90
2022-11-01T00:34:03.772Z,99.90
2022-11-01T00:36:31.701Z,99.90
2022-11-01T00:38:59.547Z,99.90
2022-11-01T00:41:27.339Z,99.90
2022-11-01T00:43:55.144Z,99.90
2022-11-01T00:46:22.959Z,99.90
2022-11-01T00:48:50.795Z,99.90
2022-11-01T00:51:19.961Z,99.90
2022-11-01T00:53:47.746Z,99.90
2022-11-01T00:56:15.552Z,99.90
2022-11-01T00:58:43.301Z,99.90
2022-11-01T01:01:11.205Z,99.90
2022-11-01T01:03:39.103Z,99.90
2022-11-01T01:06:07.045Z,99.90
2022-11-01T01:08:36.251Z,99.90
2022-11-01T01:11:04.034Z,99.90
2022-11-01T01:13:31.873Z,99.90
2022-11-01T01:15:59.656Z,99.90
2022-11-01T01:18:28.040Z,99.90
2022-11-01T01:21:00.901Z,99.90
2022-11-01T01:23:28.693Z,99.90
2022-11-01T01:25:57.845Z,99.90
2022-11-01T01:28:25.641Z,99.90
2022-11-01T01:30:53.441Z,99.90
2022-11-01T01:33:21.264Z,99.90
2022-11-01T01:35:49.045Z,99.90
2022-11-01T01:38:16.886Z,99.90
2022-11-01T01:40:44.721Z,99.90
2022-11-01T01:43:13.954Z,99.90
2022-11-01T01:45:42.348Z,99.90
2022-11-01T01:48:12.186Z,99.90
2022-11-01T01:50:41.552Z,99.90
2022-11-01T01:53:11.133Z,99.90
2022-11-01T01:55:40.279Z,99.90
2022-11-01T01:58:10.146Z,99.90
2022-11-01T02:00:39.492Z,99.90
2022-11-01T02:03:23.139Z,99.90
2022-11-01T02:05:53.067Z,99.90
2022-11-01T02:08:27.738Z,99.90
2022-11-01T02:10:57.213Z,99.90
2022-11-01T02:13:25.230Z,99.90
2022-11-01T02:16:10.914Z,99.90
2022-11-01T02:18:42.986Z,99.90
2022-11-01T02:21:22.322Z,99.90
2022-11-01T02:24:13.849Z,99.90
2022-11-01T02:26:59.174Z,99.90
2022-11-01T02:29:38.785Z,99.90
2022-11-01T02:32:13.608Z,99.90
2022-11-01T02:34:43.610Z,99.90
2022-11-01T02:37:14.714Z,99.90
2022-11-01T02:39:46.273Z,99.90
2022-11-01T02:42:16.149Z,99.90
2022-11-01T02:44:47.906Z,99.90
2022-11-01T02:47:17.427Z,99.90
2022-11-01T02:49:46.586Z,99.90
2022-11-01T02:52:16.037Z,99.90
2022-11-01T02:54:44.940Z,99.90
2022-11-01T02:57:26.716Z,99.90
2022-11-01T03:00:01.729Z,99.90
2022-11-01T03:02:40.380Z,99.90
2022-11-01T03:05:10.061Z,99.90
2022-11-01T03:07:37.977Z,99.90
2022-11-01T03:10:06.176Z,99.90
2022-11-01T03:12:34.563Z,99.90
2022-11-01T03:15:04.662Z,99.90
2022-11-01T03:17:34.984Z,99.90
2022-11-01T03:20:07.173Z,99.90
2022-11-01T03:22:37.503Z,99.90
2022-11-01T03:25:29.473Z,99.90
2022-11-01T03:27:57.590Z,99.90
2022-11-01T03:30:25.427Z,99.90
2022-11-01T03:32:56.187Z,99.90
2022-11-01T03:35:25.566Z,99.90
2022-11-01T03:37:55.279Z,99.90
2022-11-01T03:40:24.295Z,99.90
2022-11-01T03:42:53.353Z,99.90
2022-11-01T03:47:51.938Z,99.90
2022-11-01T03:50:22.248Z,99.90
2022-11-01T03:52:50.059Z,99.90
2022-11-01T03:55:19.268Z,99.90
2022-11-01T03:57:47.338Z,99.90
2022-11-01T04:00:16.326Z,99.90
2022-11-01T04:02:44.305Z,99.90
2022-11-01T04:05:12.343Z,99.90
2022-11-01T04:07:41.594Z,99.90
2022-11-01T04:10:09.797Z,99.90
2022-11-01T04:12:37.766Z,99.90
2022-11-01T04:15:23.586Z,99.90
2022-11-01T04:18:19.306Z,99.90
2022-11-01T04:20:47.086Z,99.90
2022-11-01T04:23:16.721Z,99.90
2022-11-01T04:25:45.442Z,99.90
2022-11-01T04:28:13.218Z,99.90
2022-11-01T04:30:41.022Z,99.90
2022-11-01T04:33:08.810Z,99.90
2022-11-01T04:35:37.062Z,99.90
2022-11-01T04:38:05.786Z,99.90
2022-11-01T04:40:35.383Z,99.90
2022-11-01T04:43:03.225Z,99.90
2022-11-01T04:45:31.091Z,99.90
2022-11-01T04:48:02.851Z,99.90
2022-11-01T04:50:30.960Z,99.90
2022-11-01T04:52:59.309Z,99.90
2022-11-01T04:55:27.272Z,99.90
2022-11-01T04:57:56.626Z,99.90
2022-11-01T05:00:24.647Z,99.90
2022-11-01T05:02:52.474Z,99.90
2022-11-01T05:05:20.640Z,99.90
2022-11-01T05:07:48.505Z,99.90
2022-11-01T05:10:16.406Z,99.90
2022-11-01T05:12:44.214Z,99.90
2022-11-01T05:15:13.390Z,99.90
2022-11-01T05:17:42.138Z,99.90
2022-11-01T05:20:10.866Z,99.90
2022-11-01T05:22:38.658Z,99.90
2022-11-01T05:25:09.280Z,99.90
2022-11-01T05:27:37.463Z,99.90
2022-11-01T05:30:06.090Z,99.90
2022-11-01T05:32:35.544Z,99.90
2022-11-01T05:35:04.534Z,99.90
2022-11-01T05:37:32.294Z,99.90
2022-11-01T05:40:00.183Z,99.90
2022-11-01T05:42:27.996Z,99.90
2022-11-01T05:44:55.761Z,99.90
2022-11-01T05:47:23.514Z,99.90
2022-11-01T05:49:52.658Z,99.90
2022-11-01T05:52:20.463Z,99.90
2022-11-01T05:54:48.237Z,99.90
2022-11-01T05:57:16.047Z,99.90
2022-11-01T05:59:43.855Z,99.90
2022-11-01T06:02:11.772Z,99.90
2022-11-01T06:04:39.597Z,99.90
2022-11-01T06:07:08.719Z,99.90
2022-11-01T06:09:36.498Z,99.90
2022-11-01T06:12:04.511Z,99.90
2022-11-01T06:14:32.375Z,99.90
2022-11-01T06:17:00.190Z,99.90
2022-11-01T06:19:27.977Z,99.90
2022-11-01T06:21:56.156Z,99.90
2022-11-01T06:24:25.290Z,99.90
2022-11-01T06:26:53.083Z,99.90
2022-11-01T06:29:20.866Z,99.90
2022-11-01T06:31:48.674Z,99.90
2022-11-01T06:34:16.629Z,99.90
2022-11-01T06:36:44.405Z,99.90
2022-11-01T06:39:12.554Z,99.90
2022-11-01T06:41:41.706Z,99.90
2022-11-01T06:44:09.470Z,99.90
2022-11-01T06:46:37.269Z,99.90
2022-11-01T06:49:05.065Z,99.90
2022-11-01T06:51:32.888Z,99.90
2022-11-01T06:54:00.763Z,99.90
2022-11-01T06:56:28.561Z,99.90
2022-11-01T06:58:57.687Z,99.90
2022-11-01T07:01:25.813Z,99.90
2022-11-01T07:03:53.731Z,99.90
2022-11-01T07:06:21.932Z,99.90
2022-11-01T07:08:49.718Z,99.90
2022-11-01T07:11:17.606Z,99.90
2022-11-01T07:13:45.416Z,99.90
2022-11-01T07:16:14.594Z,99.90
2022-11-01T07:18:43.166Z,99.90
2022-11-01T07:21:11.076Z,99.90
2022-11-01T07:23:38.964Z,99.90
2022-11-01T07:26:06.778Z,99.90
2022-11-01T07:28:35.094Z,99.90
2022-11-01T07:31:03.178Z,99.90
2022-11-01T07:33:32.439Z,99.90
2022-11-01T07:36:01.391Z,99.90
2022-11-01T07:38:29.240Z,99.90
2022-11-01T07:40:57.043Z,99.90
2022-11-01T07:43:24.813Z,99.90
2022-11-01T07:45:52.587Z,99.90
2022-11-01T07:48:20.496Z,99.90
2022-11-01T07:50:49.661Z,99.90
2022-11-01T07:53:18.604Z,99.90
2022-11-01T07:55:46.744Z,99.90
2022-11-01T07:58:15.047Z,99.90
2022-11-01T08:00:43.883Z,99.90
2022-11-01T08:03:13.821Z,99.90
2022-11-01T08:05:41.909Z,99.90
2022-11-01T08:08:11.717Z,99.90
2022-11-01T08:10:40.081Z,99.90
2022-11-01T08:13:08.921Z,99.90
2022-11-01T08:15:36.731Z,99.90
2022-11-01T08:18:04.974Z,99.90
2022-11-01T08:20:33.071Z,99.90
2022-11-01T08:23:01.160Z,99.90
2022-11-01T08:25:30.599Z,99.90
2022-11-01T08:28:01.784Z,99.90
2022-11-01T08:30:29.602Z,99.90
2022-11-01T08:33:00.803Z,99.90
2022-11-01T08:35:29.504Z,99.90
2022-11-01T08:37:58.997Z,99.90
2022-11-01T08:40:28.190Z,99.90
2022-11-01T08:42:57.446Z,99.90
2022-11-01T08:45:25.356Z,99.90
2022-11-01T08:47:57.460Z,99.90
2022-11-01T08:50:25.354Z,99.90
2022-11-01T08:52:53.159Z,99.90
2022-11-01T08:55:21.476Z,99.90
2022-11-01T08:57:49.433Z,99.90
2022-11-01T09:00:19.161Z,99.90
2022-11-01T09:02:46.985Z,99.90
2022-11-01T09:05:14.902Z,99.90
2022-11-01T09:07:43.530Z,99.90
2022-11-01T09:10:11.814Z,99.90
2022-11-01T09:15:08.517Z,99.90
2022-11-01T09:17:37.694Z,99.90
2022-11-01T09:20:05.862Z,99.90
2022-11-01T09:22:33.657Z,99.90
2022-11-01T09:25:01.469Z,99.90
2022-11-01T09:27:29.272Z,99.90
2022-11-01T09:29:57.108Z,99.90
2022-11-01T09:32:25.132Z,99.90
2022-11-01T09:34:54.265Z,99.90
2022-11-01T09:37:22.088Z,99.90
2022-11-01T09:39:49.882Z,99.90
2022-11-01T09:42:21.737Z,99.90
2022-11-01T09:44:51.319Z,99.90
2022-11-01T09:47:20.879Z,99.90
2022-11-01T09:49:51.072Z,99.90
2022-11-01T09:52:21.283Z,99.90
2022-11-01T09:54:49.506Z,99.90
2022-11-01T09:57:20.483Z,99.90
2022-11-01T09:59:54.018Z,99.90
2022-11-01T10:02:34.072Z,99.90
2022-11-01T10:05:07.856Z,99.90
2022-11-01T10:07:42.744Z,99.90
2022-11-01T10:10:18.344Z,99.90
2022-11-01T10:12:51.870Z,99.90
2022-11-01T10:15:25.901Z,99.90
2022-11-01T10:17:54.665Z,99.90
2022-11-01T10:20:23.944Z,99.90
2022-11-01T10:22:53.147Z,99.90
2022-11-01T10:25:22.545Z,99.90
2022-11-01T10:28:04.408Z,99.90
2022-11-01T10:30:36.469Z,99.90
2022-11-01T10:33:07.614Z,99.90
2022-11-01T10:35:37.781Z,99.90
2022-11-01T10:38:25.036Z,99.90
2022-11-01T10:40:57.390Z,99.90
2022-11-01T10:43:26.568Z,99.90
2022-11-01T10:45:56.866Z,99.90
2022-11-01T10:48:28.860Z,99.90
2022-11-01T10:50:59.964Z,98.30
2022-11-01T10:53:30.388Z,99.70
2022-11-01T10:56:01.682Z,98.30
2022-11-01T10:58:33.997Z,96.60
2022-11-01T11:01:02.362Z,96.50
2022-11-01T11:03:31.509Z,96.00
2022-11-01T11:06:01.219Z,92.10
2022-11-01T11:08:30.406Z,92.40
2022-11-01T11:11:02.303Z,93.80
2022-11-01T11:13:30.406Z,94.10
2022-11-01T11:16:00.490Z,94.40
2022-11-01T11:18:30.209Z,95.10
2022-11-01T11:21:00.141Z,96.80
2022-11-01T11:23:33.029Z,96.80
2022-11-01T11:26:04.441Z,96.30
2022-11-01T11:28:33.386Z,96.60
2022-11-01T11:31:13.376Z,97.70
2022-11-01T11:33:47.671Z,96.50
2022-11-01T11:36:15.733Z,93.90
2022-11-01T11:38:46.205Z,92.40
2022-11-01T11:41:14.547Z,90.30
2022-11-01T11:43:42.657Z,76.60
2022-11-01T11:46:15.040Z,75.30
2022-11-01T11:48:47.655Z,73.80
2022-11-01T11:51:15.842Z,67.70
2022-11-01T11:53:45.494Z,67.70
2022-11-01T11:56:13.447Z,62.30
2022-11-01T11:58:42.788Z,62.20
2022-11-01T12:01:11.865Z,61.70
2022-11-01T12:03:46.099Z,55.20
2022-11-01T12:06:15.127Z,55.30
2022-11-01T12:08:48.467Z,54.70
2022-11-01T12:11:16.606Z,53.40
2022-11-01T12:13:45.454Z,51.40
2022-11-01T12:16:19.141Z,49.60
2022-11-01T12:18:48.536Z,48.40
2022-11-01T12:21:18.615Z,49.70
2022-11-01T12:23:49.164Z,49.80
2022-11-01T12:26:17.606Z,49.20
2022-11-01T12:28:48.173Z,49.90
2022-11-01T12:31:17.781Z,49.30
2022-11-01T12:33:48.298Z,48.90
2022-11-01T12:36:16.199Z,49.40
2022-11-01T12:38:47.170Z,51.80
2022-11-01T12:41:24.511Z,51.70
2022-11-01T12:44:00.762Z,51.80
2022-11-01T12:46:32.228Z,54.40
2022-11-01T12:49:03.578Z,54.40
2022-11-01T12:51:33.907Z,56.80
2022-11-01T12:54:06.353Z,58.10
2022-11-01T12:56:35.525Z,58.90
2022-11-01T12:59:04.514Z,60.50
2022-11-01T13:01:36.339Z,59.20
2022-11-01T13:04:13.899Z,61.10
2022-11-01T13:06:54.002Z,63.60
2022-11-01T13:09:25.908Z,66.00
2022-11-01T13:11:58.979Z,61.40
2022-11-01T13:14:42.959Z,61.90
2022-11-01T13:17:13.418Z,56.50
2022-11-01T13:19:43.405Z,55.80
2022-11-01T13:22:15.337Z,52.80
2022-11-01T13:24:47.069Z,54.80
2022-11-01T13:27:18.027Z,52.70
2022-11-01T13:29:52.871Z,55.10
2022-11-01T13:32:22.834Z,54.20
2022-11-01T13:34:55.533Z,53.50
2022-11-01T13:37:28.785Z,52.90
2022-11-01T13:40:05.875Z,53.60
2022-11-01T13:42:37.949Z,55.20
2022-11-01T13:45:18.950Z,55.80
2022-11-01T13:47:49.135Z,57.00
2022-11-01T13:50:24.895Z,59.70
2022-11-01T13:52:55.686Z,62.30
2022-11-01T13:55:28.104Z,64.40
2022-11-01T13:57:57.347Z,66.60
2022-11-01T14:00:39.375Z,68.70
2022-11-01T14:03:24.780Z,70.40
2022-11-01T14:06:11.549Z,71.90
2022-11-01T14:08:39.943Z,72.80
2022-11-01T14:11:08.343Z,73.80
2022-11-01T14:13:40.076Z,73.80
2022-11-01T14:16:22.756Z,74.90
2022-11-01T14:19:13.697Z,77.50
2022-11-01T14:21:45.310Z,77.60
2022-11-01T14:24:30.726Z,77.70
2022-11-01T14:27:19.227Z,80.30
2022-11-01T14:29:50.965Z,80.30
2022-11-01T14:32:19.782Z,82.00
2022-11-01T14:34:56.414Z,84.70
2022-11-01T14:37:25.901Z,83.70
2022-11-01T14:39:59.813Z,85.10
2022-11-01T14:42:31.302Z,86.80
2022-11-01T14:45:02.148Z,87.40
2022-11-01T14:47:35.492Z,88.60
2022-11-01T14:50:06.022Z,89.50
2022-11-01T14:52:40.124Z,90.20
2022-11-01T14:55:13.878Z,91.90
2022-11-01T14:57:41.736Z,92.20
2022-11-01T15:00:23.510Z,93.30
2022-11-01T15:02:51.866Z,93.90
2022-11-01T15:05:19.780Z,95.00
2022-11-01T15:07:50.958Z,95.30
2022-11-01T15:10:19.047Z,96.10
2022-11-01T15:12:48.324Z,96.50
2022-11-01T15:15:17.519Z,96.80
2022-11-01T15:17:51.000Z,97.80
2022-11-01T15:20:20.099Z,98.30
2022-11-01T15:22:48.715Z,99.20
2022-11-01T15:25:21.487Z,99.90
2022-11-01T15:27:50.130Z,99.90
2022-11-01T15:30:22.317Z,99.90
2022-11-01T15:32:54.027Z,99.90
2022-11-01T15:35:23.175Z,99.90
2022-11-01T15:37:53.161Z,99.90
2022-11-01T15:40:28.869Z,99.90
2022-11-01T15:42:57.670Z,99.90
2022-11-01T15:45:28.573Z,99.90
2022-11-01T15:47:59.838Z,99.90
2022-11-01T15:50:31.142Z,99.90
2022-11-01T15:53:03.976Z,99.90
2022-11-01T15:55:33.894Z,99.90
2022-11-01T15:58:06.699Z,99.90
2022-11-01T16:00:35.762Z,99.90
2022-11-01T16:03:07.205Z,99.90
2022-11-01T16:05:36.113Z,99.90
2022-11-01T16:08:06.401Z,99.90
2022-11-01T16:10:34.602Z,99.90
2022-11-01T16:13:04.520Z,99.90
2022-11-01T16:15:33.249Z,99.90
2022-11-01T16:18:02.408Z,99.90
2022-11-01T16:20:33.928Z,99.90
2022-11-01T16:23:02.441Z,99.90
2022-11-01T16:25:31.628Z,99.90
2022-11-01T16:28:01.163Z,99.90
2022-11-01T16:30:33.290Z,99.90
2022-11-01T16:33:07.689Z,99.90
2022-11-01T16:35:37.429Z,99.90
2022-11-01T16:38:14.623Z,99.90
2022-11-01T16:40:42.430Z,99.90
2022-11-01T16:43:10.206Z,99.90
2022-11-01T16:45:38.452Z,99.90
2022-11-01T16:48:06.608Z,99.90
2022-11-01T16:50:34.455Z,99.90
2022-11-01T16:53:03.601Z,99.90
2022-11-01T16:55:33.591Z,99.90
2022-11-01T16:58:02.909Z,99.90
2022-11-01T17:00:31.532Z,99.90
2022-11-01T17:02:59.536Z,99.90
2022-11-01T17:05:27.358Z,99.90
2022-11-01T17:07:56.434Z,99.90
2022-11-01T17:10:26.561Z,99.90
2022-11-01T17:12:57.651Z,99.90
2022-11-01T17:15:26.738Z,99.90
2022-11-01T17:17:54.807Z,99.90
2022-11-01T17:20:26.618Z,99.90
2022-11-01T17:22:55.674Z,99.90
2022-11-01T17:25:26.505Z,99.90
2022-11-01T17:27:54.292Z,99.90
2022-11-01T17:30:22.128Z,99.90
2022-11-01T17:32:49.944Z,99.90
2022-11-01T17:35:20.371Z,99.90
2022-11-01T17:37:53.788Z,99.90
2022-11-01T17:40:25.043Z,99.90
2022-11-01T17:42:54.405Z,99.90
2022-11-01T17:45:22.789Z,99.90
2022-11-01T17:47:52.672Z,99.90
2022-11-01T17:50:20.607Z,99.90
2022-11-01T17:52:51.155Z,99.90
2022-11-01T17:55:18.963Z,99.90
2022-11-01T17:57:46.748Z,99.90
2022-11-01T18:00:16.915Z,99.90
2022-11-01T18:02:44.688Z,99.90
2022-11-01T18:05:13.809Z,99.90
2022-11-01T18:07:42.525Z,99.90
2022-11-01T18:10:16.590Z,99.90
2022-11-01T18:12:52.059Z,99.90
2022-11-01T18:15:25.850Z,99.90
2022-11-01T18:18:02.805Z,99.90
2022-11-01T18:20:39.955Z,99.90
2022-11-01T18:23:09.664Z,99.90
2022-11-01T18:25:39.441Z,99.90
2022-11-01T18:28:11.735Z,99.90
2022-11-01T18:30:42.138Z,99.90
2022-11-01T18:33:11.561Z,99.90
2022-11-01T18:35:40.073Z,99.90
2022-11-01T18:38:13.420Z,99.90
2022-11-01T18:40:45.256Z,99.90
2022-11-01T18:43:13.029Z,99.90
2022-11-01T18:45:58.809Z,99.90
2022-11-01T18:48:31.029Z,99.90
2022-11-01T18:51:04.824Z,99.90
2022-11-01T18:53:33.773Z,99.90
2022-11-01T18:56:14.990Z,99.90
2022-11-01T18:58:42.895Z,99.90
2022-11-01T19:01:14.579Z,99.90
2022-11-01T19:03:42.585Z,99.90
2022-11-01T19:06:14.475Z,99.90
2022-11-01T19:08:42.315Z,99.90
2022-11-01T19:11:11.961Z,99.90
2022-11-01T19:13:39.787Z,99.90
2022-11-01T19:16:12.021Z,99.90
2022-11-01T19:18:43.393Z,99.90
2022-11-01T19:21:16.091Z,99.90
2022-11-01T19:23:46.110Z,99.90
2022-11-01T19:26:23.630Z,99.90
2022-11-01T19:28:52.601Z,99.90
2022-11-01T19:31:27.957Z,99.90
2022-11-01T19:33:58.523Z,99.90
2022-11-01T19:36:31.259Z,99.90
2022-11-01T19:38:59.781Z,99.90
2022-11-01T19:41:30.417Z,99.90
2022-11-01T19:43:59.240Z,99.90
2022-11-01T19:46:27.158Z,99.90
2022-11-01T19:48:55.008Z,99.90
2022-11-01T19:51:26.709Z,99.90
2022-11-01T19:53:54.612Z,99.90
2022-11-01T19:56:23.402Z,99.90
2022-11-01T19:58:51.684Z,99.90
2022-11-01T20:01:45.415Z,99.90
2022-11-01T20:04:27.750Z,99.90
2022-11-01T20:07:00.975Z,99.90
2022-11-01T20:09:29.509Z,99.90
2022-11-01T20:11:57.338Z,99.90
2022-11-01T20:14:27.529Z,99.90
2022-11-01T20:16:55.358Z,99.90
2022-11-01T20:19:23.197Z,99.90
2022-11-01T20:21:50.988Z,99.90
2022-11-01T20:24:21.298Z,99.90
2022-11-01T20:26:49.351Z,99.90
2022-11-01T20:29:17.183Z,99.90
2022-11-01T20:31:44.985Z,99.90
2022-11-01T20:34:12.805Z,99.90
2022-11-01T20:36:40.639Z,99.90
2022-11-01T20:39:10.476Z,99.90
2022-11-01T20:41:42.296Z,99.90
2022-11-01T20:44:10.123Z,99.90
2022-11-01T20:46:37.929Z,99.90
2022-11-01T20:49:05.695Z,99.90
2022-11-01T20:51:33.512Z,99.90
2022-11-01T20:54:01.304Z,99.90
2022-11-01T20:56:29.113Z,99.90
2022-11-01T20:58:58.407Z,99.90
2022-11-01T21:01:26.340Z,99.90
2022-11-01T21:03:55.213Z,99.90
2022-11-01T21:06:23.270Z,99.90
2022-11-01T21:08:51.023Z,99.90
2022-11-01T21:11:22.277Z,99.90
2022-11-01T21:13:51.736Z,99.90
2022-11-01T21:16:25.259Z,99.90
2022-11-01T21:18:54.502Z,99.90
2022-11-01T21:21:28.708Z,99.90
2022-11-01T21:23:57.306Z,99.90
2022-11-01T21:26:27.584Z,99.90
2022-11-01T21:28:56.207Z,99.90
2022-11-01T21:31:29.508Z,99.90
2022-11-01T21:33:58.746Z,99.90
2022-11-01T21:36:32.296Z,99.90
2022-11-01T21:39:00.773Z,99.90
2022-11-01T21:41:35.895Z,99.90
2022-11-01T21:44:14.329Z,99.90
2022-11-01T21:46:44.509Z,99.90
2022-11-01T21:49:21.173Z,99.90
2022-11-01T21:51:49.048Z,99.90
2022-11-01T21:54:16.858Z,99.90
2022-11-01T21:56:44.610Z,99.90
2022-11-01T21:59:12.428Z,99.90
2022-11-01T22:01:40.797Z,99.90
2022-11-01T22:04:10.080Z,99.90
2022-11-01T22:06:37.844Z,99.90
2022-11-01T22:09:05.853Z,99.90
2022-11-01T22:11:33.678Z,99.90
2022-11-01T22:14:01.499Z,99.90
2022-11-01T22:16:29.280Z,99.90
2022-11-01T22:18:57.259Z,99.90
2022-11-01T22:21:26.467Z,99.90
2022-11-01T22:23:54.273Z,99.90
2022-11-01T22:26:23.026Z,99.90
2022-11-01T22:28:50.958Z,99.90
2022-11-01T22:31:19.343Z,99.90
2022-11-01T22:33:49.620Z,99.90
2022-11-01T22:36:22.201Z,99.90
2022-11-01T22:38:51.463Z,99.90
2022-11-01T22:41:25.905Z,99.90
2022-11-01T22:43:57.138Z,99.90
2022-11-01T22:46:26.593Z,99.90
2022-11-01T22:48:59.080Z,99.90
2022-11-01T22:51:32.492Z,99.90
2022-11-01T22:54:01.609Z,99.90
2022-11-01T22:56:29.587Z,99.90
2022-11-01T22:58:57.525Z,99.90
2022-11-01T23:01:29.040Z,99.90
2022-11-01T23:03:59.057Z,99.90
2022-11-01T23:06:31.171Z,99.90
2022-11-01T23:09:05.551Z,99.90
2022-11-01T23:11:50.697Z,99.90
2022-11-01T23:14:40.283Z,99.90
2022-11-01T23:17:19.805Z,99.90
2022-11-01T23:19:47.853Z,99.90
2022-11-01T23:22:16.491Z,99.90
2022-11-01T23:24:45.762Z,99.90
2022-11-01T23:27:13.608Z,99.90
2022-11-01T23:29:42.083Z,99.90
2022-11-01T23:32:10.003Z,99.90
2022-11-01T23:34:37.826Z,99.90
2022-11-01T23:37:06.914Z,99.90
2022-11-01T23:39:35.076Z,99.90
2022-11-01T23:42:04.311Z,99.90
2022-11-01T23:44:34.630Z,99.90
2022-11-01T23:47:05.326Z,99.90
2022-11-01T23:49:33.921Z,99.90
2022-11-01T23:52:01.805Z,99.90
2022-11-01T23:54:34.370Z,99.90
2022-11-01T23:57:02.240Z,99.90
2022-11-01T23:59:31.716Z,99.90
